罗盘
风向 的 风向 的 风向 到 风向 280° Stuttgart Airport 7/25
风: 9 kt, 3 beaufort

8 kt

4 kt
改变
0 1.000 2.000 3.000 4.000 5.000
FEW 3.300 ft
OVC 4.100 ft
METAR EDTY 271420Z 28009KT 250V310 9999 FEW033 OVC041 21/15 Q1019

METAR Stuttgart Airport

Stuttgart Airport是Stuttgart,德国中的大型机场。 该机场有一条跑道: 7/25.

这份报告是针对2022年6月27日 4:20 下午, 当地时间在Adolf Würth Airport进行的。

机场观察

风向为280°,速度为9 kt。 风向在250°和310°之间变化。

可见度为6¼ mi 或者更多。

有几云在3.300 ft的高度 和 乌云密布在4.100 ft的高度。 破损或更高的上限为4.100 ft。

温度和风寒是70 °F。 露点为59 °F,相对湿度为69%。 海平面上的气压为30,09 inHg (QNH)。

白天

今天,太阳从5:22 上午升起,在9:30 下午降落。 这适用于Stuttgart Airport,世界夏令时可能有所不同。 当地时间与世界标准时间之间的时差为+2 小时。 夏令时目前正在进行中。

公司介绍

在这个机场,你可以找到飞行学校。 本场上唯一已知的公司是Flugbetrieb Aero Beta。

体会

到Vliegles.nl去找飞行课程,跳伞和其他飞行体验。 浏览页面,了解Stuttgart Airport附近所有可用的活动。 你也可以使用搜索功能来寻找你所在地附近的特定飞行课程、跳伞或其他飞行体验。

您会帮助我们保持Metar-Taf.com正常运行吗?
您的贡献有助于网站的进一步开发并支付费用。

没有更多广告

您是捐款5美元还是更多?然后,我们将永远不会再向您展示广告,这是我们永恒的感谢!
捐赠前先登录

跑道

Id 标题 侧风 逆风 侧风 %
7/25 072°-252° 4 kt 8 kt 47 %

逆风成分最大的方向会被突出显示,并用于横风计算。 这并不一定意味着这个方向在使用。

乌云

3.300 ft FEW 几云
4.100 ft OVC 乌云密布

温度 & 天气

温度 70 °F
露点 59 °F
相对湿度 69%
Kp-index 0  

公司介绍

新增公司

下载我们的应用程序

在您的手机和平板电脑上轻松访问所有航空天气。
有许多网站上没有的功能,如离线支持和个人机场列表。

Studio Eveline

Benalmádena
España

我们和第三方通过cookies跟踪您在我们网站上的上网行为。如果您继续,我们认为您同意我们的cookie政策。 了解更多